createdAt,value
2022-12-02T00:00:44.048Z,63.00
2022-12-02T00:01:44.054Z,67.50
2022-12-02T00:02:44.130Z,80.10
2022-12-02T00:03:44.175Z,69.20
2022-12-02T00:04:43.997Z,67.60
2022-12-02T00:05:43.975Z,58.10
2022-12-02T00:06:43.994Z,71.20
2022-12-02T00:07:44.025Z,65.60
2022-12-02T00:08:43.988Z,71.20
2022-12-02T00:09:43.975Z,63.60
2022-12-02T00:10:43.914Z,65.70
2022-12-02T00:11:43.948Z,55.30
2022-12-02T00:12:43.919Z,71.20
2022-12-02T00:13:43.919Z,69.10
2022-12-02T00:14:43.895Z,68.40
2022-12-02T00:15:43.919Z,60.20
2022-12-02T00:16:43.948Z,64.50
2022-12-02T00:17:43.837Z,58.90
2022-12-02T00:18:43.826Z,73.40
2022-12-02T00:19:43.850Z,63.50
2022-12-02T00:20:43.816Z,70.70
2022-12-02T00:21:43.820Z,56.90
2022-12-02T00:22:43.785Z,64.70
2022-12-02T00:23:43.767Z,60.50
2022-12-02T00:24:43.794Z,57.20
2022-12-02T00:25:43.801Z,65.00
2022-12-02T00:26:43.750Z,64.10
2022-12-02T00:27:43.760Z,68.40
2022-12-02T00:28:43.751Z,68.20
2022-12-02T00:29:43.711Z,63.70
2022-12-02T00:30:43.712Z,59.70
2022-12-02T00:31:43.718Z,59.10
2022-12-02T00:32:43.693Z,57.30
2022-12-02T00:33:43.694Z,59.70
2022-12-02T00:34:43.654Z,61.60
2022-12-02T00:35:43.699Z,59.50
2022-12-02T00:36:43.666Z,64.10
2022-12-02T00:37:43.663Z,66.90
2022-12-02T00:38:43.630Z,64.60
2022-12-02T00:39:43.623Z,70.00
2022-12-02T00:40:43.593Z,60.70
2022-12-02T00:41:43.575Z,63.30
2022-12-02T00:42:43.592Z,61.20
2022-12-02T00:43:43.594Z,68.20
2022-12-02T00:44:43.574Z,64.60
2022-12-02T00:45:43.575Z,64.70
2022-12-02T00:46:43.542Z,58.30
2022-12-02T00:47:43.562Z,57.50
2022-12-02T00:48:43.507Z,72.70
2022-12-02T00:49:43.477Z,61.70
2022-12-02T00:50:43.505Z,56.70
2022-12-02T00:51:43.490Z,56.70
2022-12-02T00:52:43.502Z,59.70
2022-12-02T00:53:43.451Z,68.30
2022-12-02T00:54:43.423Z,55.00
2022-12-02T00:55:43.425Z,60.70
2022-12-02T00:56:43.467Z,63.10
2022-12-02T00:57:43.387Z,56.20
2022-12-02T00:58:43.388Z,56.60
2022-12-02T00:59:43.354Z,56.50
2022-12-02T01:00:43.382Z,60.80
2022-12-02T01:01:43.396Z,62.50
2022-12-02T01:02:43.534Z,56.30
2022-12-02T01:03:46.102Z,69.90
2022-12-02T01:04:43.294Z,55.50
2022-12-02T01:05:43.288Z,55.70
2022-12-02T01:06:43.276Z,63.60
2022-12-02T01:07:43.449Z,61.70
2022-12-02T01:08:43.276Z,60.50
2022-12-02T01:09:43.244Z,67.80
2022-12-02T01:10:43.249Z,73.30
2022-12-02T01:11:43.299Z,71.20
2022-12-02T01:12:43.278Z,69.50
2022-12-02T01:13:43.268Z,59.50
2022-12-02T01:14:43.185Z,61.00
2022-12-02T01:15:43.190Z,68.30
2022-12-02T01:16:43.285Z,66.20
2022-12-02T01:17:43.238Z,65.80
2022-12-02T01:18:43.196Z,64.50
2022-12-02T01:19:43.183Z,61.70
2022-12-02T01:20:43.110Z,61.00
2022-12-02T01:21:43.127Z,68.30
2022-12-02T01:22:43.099Z,58.90
2022-12-02T01:23:43.106Z,58.80
2022-12-02T01:24:43.081Z,72.50
2022-12-02T01:25:43.088Z,67.00
2022-12-02T01:26:43.082Z,67.20
2022-12-02T01:27:43.046Z,67.40
2022-12-02T01:28:43.062Z,63.70
2022-12-02T01:29:43.023Z,59.40
2022-12-02T01:30:43.069Z,75.80
2022-12-02T01:31:43.031Z,63.50
2022-12-02T01:32:42.997Z,58.70
2022-12-02T01:33:42.981Z,70.70
2022-12-02T01:34:42.959Z,57.30
2022-12-02T01:35:42.994Z,71.80
2022-12-02T01:36:42.964Z,60.90
2022-12-02T01:37:42.964Z,56.80
2022-12-02T01:38:42.901Z,57.20
2022-12-02T01:39:42.903Z,58.20
2022-12-02T01:40:42.891Z,62.50
2022-12-02T01:41:42.873Z,56.60
2022-12-02T01:42:42.863Z,67.90
2022-12-02T01:43:42.895Z,62.90
2022-12-02T01:44:42.846Z,73.60
2022-12-02T01:45:42.896Z,63.60
2022-12-02T01:46:42.875Z,59.60
2022-12-02T01:47:42.805Z,67.50
2022-12-02T01:48:42.782Z,69.30
2022-12-02T01:49:42.825Z,72.50
2022-12-02T01:50:42.779Z,73.70
2022-12-02T01:51:42.962Z,66.50
2022-12-02T01:52:43.651Z,65.00
2022-12-02T01:53:42.744Z,87.50
2022-12-02T01:54:42.722Z,71.60
2022-12-02T01:55:42.736Z,64.30
2022-12-02T01:56:42.725Z,62.00
2022-12-02T01:57:42.718Z,72.30
2022-12-02T02:30:42.946Z,70.40
2022-12-02T02:31:42.712Z,89.50
2022-12-02T02:32:42.618Z,69.10
2022-12-02T02:33:42.617Z,69.00
2022-12-02T02:34:42.651Z,73.30
2022-12-02T02:35:42.568Z,67.90
2022-12-02T02:36:42.550Z,66.30
2022-12-02T02:37:42.542Z,61.70
2022-12-02T02:38:42.571Z,64.60
2022-12-02T02:39:42.519Z,63.10
2022-12-02T02:40:42.530Z,63.90
2022-12-02T02:41:42.513Z,69.00
2022-12-02T02:42:42.522Z,65.30
2022-12-02T02:43:42.473Z,66.70
2022-12-02T02:44:42.501Z,76.10
2022-12-02T02:45:42.504Z,68.90
2022-12-02T02:46:42.442Z,68.90
2022-12-02T02:47:42.441Z,73.10
2022-12-02T02:48:42.410Z,65.40
2022-12-02T02:49:42.421Z,63.00
2022-12-02T02:50:42.393Z,71.40
2022-12-02T02:51:42.387Z,69.30
2022-12-02T02:52:42.403Z,71.30
2022-12-02T02:53:42.375Z,61.70
2022-12-02T02:54:42.345Z,74.60
2022-12-02T02:55:42.383Z,67.70
2022-12-02T02:56:42.435Z,76.10
2022-12-02T02:57:42.376Z,60.00
2022-12-02T02:58:42.293Z,62.30
2022-12-02T02:59:42.282Z,60.50
2022-12-02T03:00:42.289Z,74.50
2022-12-02T03:01:42.452Z,66.80
2022-12-02T03:02:42.348Z,67.50
2022-12-02T03:03:42.255Z,58.00
2022-12-02T03:04:42.232Z,56.60
2022-12-02T03:05:42.213Z,63.30
2022-12-02T03:06:42.222Z,62.10
2022-12-02T03:07:42.223Z,60.50
2022-12-02T03:08:42.199Z,54.60
2022-12-02T03:09:42.168Z,64.90
2022-12-02T03:10:42.144Z,61.40
2022-12-02T03:11:42.157Z,59.20
2022-12-02T03:12:42.171Z,64.00
2022-12-02T03:13:42.148Z,56.40
2022-12-02T03:14:42.128Z,60.00
2022-12-02T03:15:42.086Z,62.60
2022-12-02T03:16:42.129Z,57.20
2022-12-02T03:17:42.118Z,59.10
2022-12-02T03:18:42.088Z,58.30
2022-12-02T03:19:42.101Z,58.90
2022-12-02T03:20:42.040Z,53.30
2022-12-02T03:21:42.026Z,58.80
2022-12-02T03:22:42.016Z,49.00
2022-12-02T03:23:42.035Z,60.80
2022-12-02T03:24:42.030Z,60.80
2022-12-02T03:25:41.976Z,64.10
2022-12-02T03:26:41.978Z,65.70
2022-12-02T03:27:41.969Z,52.10
2022-12-02T03:28:42.019Z,58.20
2022-12-02T03:29:41.949Z,56.70
2022-12-02T03:30:41.966Z,59.00
2022-12-02T03:31:41.921Z,52.60
2022-12-02T03:32:41.901Z,54.20
2022-12-02T03:33:41.898Z,56.50
2022-12-02T03:34:41.907Z,52.90
2022-12-02T03:35:41.889Z,52.00
2022-12-02T03:36:41.883Z,55.60
2022-12-02T03:37:41.831Z,54.40
2022-12-02T03:38:41.843Z,51.30
2022-12-02T03:39:41.829Z,53.10
2022-12-02T03:40:41.858Z,72.90
2022-12-02T03:41:41.790Z,53.60
2022-12-02T03:42:41.802Z,53.60
2022-12-02T03:43:41.777Z,55.30
2022-12-02T03:44:41.759Z,61.80
2022-12-02T03:45:41.759Z,56.50
2022-12-02T03:46:41.846Z,60.20
2022-12-02T03:47:41.743Z,58.10
2022-12-02T03:48:41.742Z,65.50
2022-12-02T03:49:41.704Z,70.80
2022-12-02T03:50:41.713Z,56.60
2022-12-02T03:51:41.706Z,55.20
2022-12-02T03:52:41.715Z,59.30
2022-12-02T03:53:41.671Z,60.20
2022-12-02T03:54:41.665Z,55.10
2022-12-02T03:55:41.634Z,58.10
2022-12-02T03:56:41.656Z,53.50
2022-12-02T03:57:41.607Z,57.50
2022-12-02T03:58:41.619Z,60.70
2022-12-02T03:59:41.586Z,53.40
2022-12-02T04:00:41.572Z,54.20
2022-12-02T04:01:41.607Z,47.50
2022-12-02T04:02:41.650Z,52.50
2022-12-02T04:03:41.550Z,48.70
2022-12-02T04:04:41.532Z,51.30
2022-12-02T04:05:47.870Z,51.70
2022-12-02T04:06:42.506Z,54.90
2022-12-02T04:07:41.604Z,61.00
2022-12-02T04:08:41.504Z,53.40
2022-12-02T04:09:41.490Z,54.90
2022-12-02T04:10:41.466Z,66.70
2022-12-02T04:11:41.464Z,54.80
2022-12-02T04:12:41.454Z,51.70
2022-12-02T04:13:41.424Z,53.90
2022-12-02T04:14:41.428Z,54.90
2022-12-02T04:15:41.499Z,52.90
2022-12-02T04:16:41.385Z,50.50
2022-12-02T04:17:41.395Z,53.70
2022-12-02T04:18:41.389Z,46.30
2022-12-02T04:19:41.358Z,48.20
2022-12-02T04:20:41.378Z,47.20
2022-12-02T04:21:41.340Z,47.50
2022-12-02T04:22:41.336Z,46.40
2022-12-02T04:23:41.296Z,42.90
2022-12-02T04:24:41.307Z,52.90
2022-12-02T04:25:41.274Z,52.70
2022-12-02T04:26:43.822Z,52.30
2022-12-02T04:27:41.310Z,54.50
2022-12-02T04:28:41.273Z,57.60
2022-12-02T04:29:41.252Z,47.80
2022-12-02T04:30:41.245Z,53.80
2022-12-02T04:31:41.341Z,49.40
2022-12-02T04:32:41.223Z,53.50
2022-12-02T04:33:41.257Z,53.70
2022-12-02T04:34:41.175Z,55.10
2022-12-02T04:35:41.170Z,52.80
2022-12-02T04:36:41.150Z,50.10
2022-12-02T04:37:41.153Z,45.00
2022-12-02T04:38:41.169Z,44.40
2022-12-02T04:39:41.151Z,49.20
2022-12-02T04:40:41.098Z,49.40
2022-12-02T04:41:41.091Z,54.20
2022-12-02T04:42:41.079Z,53.30
2022-12-02T04:43:41.085Z,48.90
2022-12-02T04:44:41.069Z,55.00
2022-12-02T04:45:41.079Z,48.50
2022-12-02T04:46:41.148Z,53.20
2022-12-02T04:47:41.035Z,48.50
2022-12-02T04:48:41.011Z,52.90
2022-12-02T04:49:41.011Z,48.90
2022-12-02T04:50:40.994Z,55.50
2022-12-02T04:51:41.010Z,45.20
2022-12-02T04:52:40.966Z,49.10
2022-12-02T04:53:41.004Z,50.20
2022-12-02T04:54:40.941Z,51.90
2022-12-02T04:55:40.955Z,52.90
2022-12-02T04:56:40.924Z,53.20
2022-12-02T04:57:40.946Z,51.40
2022-12-02T04:58:40.897Z,49.00
2022-12-02T04:59:40.902Z,57.40
2022-12-02T05:00:40.876Z,53.50
2022-12-02T05:01:40.861Z,58.40
2022-12-02T05:02:40.917Z,45.60
2022-12-02T05:03:40.850Z,50.00
2022-12-02T05:04:40.923Z,48.20
2022-12-02T05:05:40.812Z,48.50
2022-12-02T05:06:40.827Z,46.90
2022-12-02T05:07:40.843Z,52.40
2022-12-02T05:08:40.806Z,44.30
2022-12-02T05:09:40.797Z,48.90
2022-12-02T05:10:40.787Z,57.90
2022-12-02T05:11:40.753Z,57.50
2022-12-02T05:12:40.747Z,48.10
2022-12-02T05:13:40.728Z,50.20
2022-12-02T05:14:40.730Z,54.90
2022-12-02T05:15:40.725Z,64.30
2022-12-02T05:16:40.718Z,60.80
2022-12-02T05:17:42.391Z,56.60
2022-12-02T05:18:40.687Z,53.60
2022-12-02T05:19:40.660Z,47.10
2022-12-02T05:20:40.650Z,54.00
2022-12-02T05:21:40.656Z,53.10
2022-12-02T05:22:40.606Z,47.40
2022-12-02T05:23:40.625Z,55.40
2022-12-02T05:24:40.605Z,51.90
2022-12-02T05:25:40.587Z,54.20
2022-12-02T05:26:40.570Z,51.60
2022-12-02T05:27:40.560Z,49.20
2022-12-02T05:28:40.549Z,48.60
2022-12-02T05:29:40.598Z,58.60
2022-12-02T05:30:40.527Z,52.60
2022-12-02T05:31:40.599Z,54.50
2022-12-02T05:32:40.530Z,53.70
2022-12-02T05:33:40.491Z,44.20
2022-12-02T05:34:40.478Z,49.40
2022-12-02T05:35:40.506Z,47.90
2022-12-02T05:36:40.451Z,50.10
2022-12-02T05:37:40.458Z,48.70
2022-12-02T05:38:40.431Z,52.80
2022-12-02T05:39:40.422Z,47.10
2022-12-02T05:40:40.475Z,52.60
2022-12-02T05:41:40.418Z,50.70
2022-12-02T05:42:40.409Z,50.90
2022-12-02T05:43:40.360Z,57.60
2022-12-02T05:44:40.351Z,51.80
2022-12-02T05:45:40.354Z,46.40
2022-12-02T05:46:40.417Z,48.90
2022-12-02T05:47:40.340Z,56.60
2022-12-02T05:48:40.311Z,48.60
2022-12-02T05:49:40.305Z,52.80
2022-12-02T05:50:40.304Z,49.90
2022-12-02T05:51:40.306Z,47.00
2022-12-02T05:52:40.341Z,59.40
2022-12-02T05:53:40.273Z,56.90
2022-12-02T05:54:40.292Z,59.60
2022-12-02T05:55:40.281Z,48.80
2022-12-02T05:56:40.211Z,48.40
2022-12-02T05:57:40.217Z,64.20
2022-12-02T05:58:40.207Z,60.40
2022-12-02T05:59:40.194Z,47.60
2022-12-02T06:00:40.205Z,51.80
2022-12-02T06:01:40.241Z,54.50
2022-12-02T06:02:41.183Z,49.20
2022-12-02T06:03:40.262Z,49.30
2022-12-02T06:04:40.142Z,48.40
2022-12-02T06:05:40.103Z,55.20
2022-12-02T06:06:40.122Z,47.30
2022-12-02T06:07:40.119Z,44.10
2022-12-02T06:08:40.366Z,47.20
2022-12-02T06:09:40.106Z,45.80
2022-12-02T06:10:40.056Z,48.00
2022-12-02T06:11:40.079Z,46.20
2022-12-02T06:12:40.057Z,46.70
2022-12-02T06:13:40.078Z,51.90
2022-12-02T06:14:40.014Z,43.40
2022-12-02T06:15:40.032Z,48.20
2022-12-02T06:16:40.060Z,42.50
2022-12-02T06:17:39.989Z,44.20
2022-12-02T06:18:39.990Z,42.40
2022-12-02T06:19:39.975Z,40.90
2022-12-02T06:20:39.969Z,42.20
2022-12-02T06:21:39.916Z,40.40
2022-12-02T06:22:39.919Z,46.70
2022-12-02T06:23:39.927Z,40.30
2022-12-02T06:24:39.909Z,43.60
2022-12-02T06:25:39.920Z,44.90
2022-12-02T06:26:39.890Z,50.60
2022-12-02T06:27:39.869Z,43.00
2022-12-02T06:28:39.864Z,44.80
2022-12-02T06:29:39.862Z,47.20
2022-12-02T06:30:39.874Z,40.90
2022-12-02T06:31:39.847Z,47.80
2022-12-02T06:32:39.815Z,39.00
2022-12-02T06:33:39.804Z,41.40
2022-12-02T06:34:39.801Z,46.10
2022-12-02T06:35:39.787Z,48.80
2022-12-02T06:36:39.780Z,47.00
2022-12-02T06:37:39.775Z,39.60
2022-12-02T06:38:44.034Z,39.70
2022-12-02T06:39:58.224Z,44.80
2022-12-02T06:40:40.722Z,47.20
2022-12-02T06:41:39.699Z,42.50
2022-12-02T06:42:39.713Z,46.00
2022-12-02T06:43:39.702Z,45.30
2022-12-02T06:44:39.700Z,45.90
2022-12-02T06:45:39.678Z,49.40
2022-12-02T06:46:39.652Z,46.50
2022-12-02T06:47:39.628Z,45.80
2022-12-02T06:48:39.622Z,55.90
2022-12-02T06:49:39.654Z,46.40
2022-12-02T06:50:42.760Z,44.40
2022-12-02T06:51:39.600Z,46.40
2022-12-02T06:52:39.592Z,45.90
2022-12-02T06:53:39.565Z,45.10
2022-12-02T06:54:39.578Z,43.90
2022-12-02T06:55:40.245Z,48.80
2022-12-02T06:56:39.532Z,44.60
2022-12-02T06:57:39.525Z,41.50
2022-12-02T06:58:39.505Z,41.00
2022-12-02T06:59:39.492Z,48.80
2022-12-02T07:00:39.507Z,42.20
2022-12-02T07:01:39.540Z,44.40
2022-12-02T07:02:39.492Z,48.30
2022-12-02T07:03:39.455Z,50.10
2022-12-02T07:04:39.452Z,41.00
2022-12-02T07:05:39.445Z,46.10
2022-12-02T07:06:39.418Z,41.80
2022-12-02T07:07:39.483Z,41.50
2022-12-02T07:08:39.375Z,46.90
2022-12-02T07:09:39.373Z,38.40
2022-12-02T07:10:39.353Z,48.60
2022-12-02T07:11:39.406Z,43.00
2022-12-02T07:12:39.359Z,45.60
2022-12-02T07:13:39.323Z,45.70
2022-12-02T07:14:39.314Z,47.80
2022-12-02T07:15:39.324Z,44.60
2022-12-02T07:16:39.402Z,45.60
2022-12-02T07:17:39.295Z,40.30
2022-12-02T07:18:39.278Z,43.90
2022-12-02T07:19:39.309Z,42.50
2022-12-02T07:20:39.318Z,46.10
2022-12-02T07:21:39.227Z,49.30
2022-12-02T07:22:39.246Z,46.60
2022-12-02T07:23:39.196Z,44.90
2022-12-02T07:24:39.208Z,42.80
2022-12-02T07:25:39.220Z,40.30
2022-12-02T07:26:39.210Z,40.80
2022-12-02T07:27:40.175Z,41.70
2022-12-02T07:28:39.137Z,40.60
2022-12-02T07:29:39.129Z,40.50
2022-12-02T07:30:39.210Z,41.60
2022-12-02T07:31:39.136Z,44.40
2022-12-02T07:32:39.119Z,40.20
2022-12-02T07:33:39.109Z,41.00
2022-12-02T07:34:39.101Z,41.00
2022-12-02T07:35:39.108Z,38.20
2022-12-02T07:36:39.103Z,36.80
2022-12-02T07:37:39.050Z,38.90
2022-12-02T07:39:40.054Z,37.30
2022-12-02T07:40:39.051Z,39.90
2022-12-02T07:41:39.012Z,33.30
2022-12-02T07:42:39.000Z,38.00
2022-12-02T07:43:38.980Z,38.50
2022-12-02T07:44:38.978Z,40.30
2022-12-02T07:45:42.755Z,38.80
2022-12-02T07:46:39.055Z,37.40
2022-12-02T07:47:38.940Z,39.70
2022-12-02T07:48:38.928Z,42.60
2022-12-02T07:49:38.929Z,37.20
2022-12-02T07:50:38.930Z,43.60
2022-12-02T07:51:38.910Z,36.50
2022-12-02T07:52:38.880Z,32.40
2022-12-02T07:53:38.871Z,35.30
2022-12-02T07:54:38.840Z,37.50
2022-12-02T07:55:39.711Z,39.30
2022-12-02T07:56:38.859Z,36.40
2022-12-02T07:57:38.801Z,39.50
2022-12-02T07:59:10.302Z,36.40
2022-12-02T07:59:39.814Z,40.50
2022-12-02T08:00:39.741Z,37.40
2022-12-02T08:01:38.889Z,35.30
2022-12-02T08:02:38.781Z,33.60
2022-12-02T08:03:38.766Z,36.20
2022-12-02T08:04:38.797Z,34.30
2022-12-02T08:05:38.742Z,37.80
2022-12-02T08:06:40.590Z,33.40
2022-12-02T08:07:38.819Z,39.30
2022-12-02T08:08:38.724Z,37.90
2022-12-02T08:09:39.313Z,36.80
2022-12-02T08:10:38.679Z,32.50
2022-12-02T08:11:38.885Z,36.80
2022-12-02T08:12:38.667Z,35.20
2022-12-02T08:13:38.844Z,34.30
2022-12-02T08:14:39.947Z,35.10
2022-12-02T08:15:38.640Z,36.80
2022-12-02T08:16:38.703Z,33.50
2022-12-02T08:17:38.583Z,33.40
2022-12-02T08:18:38.577Z,34.20
2022-12-02T08:19:38.612Z,37.50
2022-12-02T08:20:41.919Z,35.20
2022-12-02T08:21:38.539Z,37.20
2022-12-02T08:22:38.521Z,34.00
2022-12-02T08:23:38.516Z,38.70
2022-12-02T08:24:38.520Z,35.90
2022-12-02T08:25:38.519Z,33.80
2022-12-02T08:26:38.528Z,39.00
2022-12-02T08:27:42.488Z,39.90
2022-12-02T08:28:39.444Z,35.70
2022-12-02T08:29:38.675Z,42.90
2022-12-02T08:30:39.414Z,39.10
2022-12-02T08:31:38.447Z,38.70
2022-12-02T08:32:38.522Z,44.20
2022-12-02T08:33:38.388Z,39.90
2022-12-02T08:34:38.399Z,40.00
2022-12-02T08:35:38.388Z,37.20
2022-12-02T08:36:38.610Z,39.00
2022-12-02T08:37:38.381Z,44.70
2022-12-02T08:38:38.382Z,41.40
2022-12-02T08:39:38.327Z,42.80
2022-12-02T08:40:38.339Z,46.20
2022-12-02T08:41:38.310Z,44.40
2022-12-02T08:42:38.281Z,40.50
2022-12-02T08:43:38.323Z,38.30
2022-12-02T08:44:38.258Z,39.10
2022-12-02T08:45:38.252Z,39.50
2022-12-02T08:46:38.282Z,39.10
2022-12-02T08:47:38.259Z,40.70
2022-12-02T08:48:38.243Z,39.30
2022-12-02T08:49:38.245Z,41.10
2022-12-02T08:50:38.179Z,41.80
2022-12-02T08:51:38.221Z,36.70
2022-12-02T08:52:38.213Z,34.80
2022-12-02T08:53:38.150Z,44.30
2022-12-02T08:54:38.141Z,38.50
2022-12-02T08:55:38.131Z,40.10
2022-12-02T08:56:38.160Z,38.80
2022-12-02T08:57:38.149Z,38.40
2022-12-02T08:58:38.105Z,36.90
2022-12-02T08:59:38.103Z,38.80
2022-12-02T09:00:39.494Z,41.20
2022-12-02T09:01:38.133Z,41.30
2022-12-02T09:02:38.155Z,38.40
2022-12-02T09:03:38.059Z,44.50
2022-12-02T09:04:38.044Z,38.30
2022-12-02T09:05:38.054Z,39.90
2022-12-02T09:06:38.021Z,33.80
2022-12-02T09:07:38.077Z,40.70
2022-12-02T09:08:38.026Z,40.60
2022-12-02T09:09:37.985Z,41.40
2022-12-02T09:10:38.054Z,44.40
2022-12-02T09:11:37.983Z,39.20
2022-12-02T09:12:37.947Z,46.60
2022-12-02T09:13:37.978Z,42.70
2022-12-02T09:14:37.943Z,38.20
2022-12-02T09:15:37.954Z,44.90
2022-12-02T09:16:37.906Z,44.80
2022-12-02T09:17:37.885Z,39.50
2022-12-02T09:18:37.873Z,36.40
2022-12-02T09:19:37.903Z,45.70
2022-12-02T09:20:37.855Z,44.10
2022-12-02T09:21:37.869Z,46.00
2022-12-02T09:22:37.863Z,36.80
2022-12-02T09:23:37.854Z,41.40
2022-12-02T09:24:37.817Z,42.80
2022-12-02T09:25:37.803Z,44.20
2022-12-02T09:26:37.786Z,45.40
2022-12-02T09:27:40.809Z,41.10
2022-12-02T09:28:38.096Z,42.30
2022-12-02T09:29:37.782Z,44.50
2022-12-02T09:30:37.736Z,44.40
2022-12-02T09:31:37.752Z,38.90
2022-12-02T09:32:37.755Z,48.90
2022-12-02T09:33:37.696Z,43.10
2022-12-02T09:34:37.727Z,44.80
2022-12-02T09:35:37.677Z,48.20
2022-12-02T09:36:37.682Z,50.20
2022-12-02T09:37:37.660Z,45.60
2022-12-02T09:38:37.670Z,57.20
2022-12-02T09:39:39.268Z,44.40
2022-12-02T09:40:37.662Z,44.90
2022-12-02T09:41:37.607Z,39.80
2022-12-02T09:42:37.613Z,46.10
2022-12-02T09:43:37.578Z,39.20
2022-12-02T09:44:37.588Z,43.90
2022-12-02T09:45:37.589Z,39.30
2022-12-02T09:46:37.572Z,48.10
2022-12-02T09:47:37.538Z,46.00
2022-12-02T09:48:40.623Z,42.90
2022-12-02T09:49:37.522Z,41.60
2022-12-02T09:50:37.499Z,42.30
2022-12-02T09:51:37.503Z,41.50
2022-12-02T09:52:37.513Z,41.90
2022-12-02T09:53:37.493Z,40.70
2022-12-02T09:54:37.538Z,42.20
2022-12-02T09:55:37.454Z,42.50
2022-12-02T09:56:37.440Z,40.80
2022-12-02T09:57:40.571Z,47.90
2022-12-02T09:58:37.421Z,42.50
2022-12-02T09:59:37.484Z,40.10
2022-12-02T10:00:37.410Z,41.00
2022-12-02T10:01:37.871Z,43.40
2022-12-02T10:02:37.418Z,40.90
2022-12-02T10:03:37.453Z,38.80
2022-12-02T10:04:37.354Z,40.40
2022-12-02T10:05:37.364Z,44.00
2022-12-02T10:06:37.384Z,42.00
2022-12-02T10:07:37.378Z,42.60
2022-12-02T10:08:37.336Z,39.00
2022-12-02T10:09:37.314Z,40.20
2022-12-02T10:10:37.281Z,37.60
2022-12-02T10:11:37.282Z,40.00
2022-12-02T10:12:37.292Z,41.70
2022-12-02T10:13:37.275Z,39.60
2022-12-02T10:14:37.241Z,39.90
2022-12-02T10:15:37.214Z,40.50
2022-12-02T10:16:37.275Z,44.70
2022-12-02T10:17:37.193Z,48.50
2022-12-02T10:18:37.215Z,43.30
2022-12-02T10:19:37.174Z,40.90
2022-12-02T10:20:37.156Z,40.50
2022-12-02T10:21:37.200Z,38.90
2022-12-02T10:22:37.179Z,43.20
2022-12-02T10:23:39.480Z,44.20
2022-12-02T10:24:37.127Z,39.50
2022-12-02T10:25:37.119Z,47.60
2022-12-02T10:26:37.126Z,46.60
2022-12-02T10:27:37.139Z,50.30
2022-12-02T10:28:37.079Z,41.40
2022-12-02T10:29:37.056Z,43.10
2022-12-02T10:30:37.079Z,44.30
2022-12-02T10:31:37.084Z,45.40
2022-12-02T10:32:37.030Z,44.70
2022-12-02T10:33:37.040Z,44.40
2022-12-02T10:34:37.038Z,47.90
2022-12-02T10:35:37.001Z,44.10
2022-12-02T10:36:36.976Z,49.50
2022-12-02T10:37:36.978Z,47.30
2022-12-02T10:38:36.970Z,51.40
2022-12-02T10:39:38.473Z,45.00
2022-12-02T10:40:37.000Z,42.00
2022-12-02T10:41:36.937Z,43.50
2022-12-02T10:42:36.929Z,40.50
2022-12-02T10:43:36.901Z,42.10
2022-12-02T10:44:36.919Z,49.30
2022-12-02T10:45:36.868Z,49.90
2022-12-02T10:46:36.921Z,46.50
2022-12-02T10:47:36.860Z,46.40
2022-12-02T10:48:36.830Z,42.90
2022-12-02T10:49:36.915Z,46.80
2022-12-02T10:50:36.843Z,44.00
2022-12-02T10:51:36.813Z,44.80
2022-12-02T10:52:36.836Z,39.80
2022-12-02T10:53:36.780Z,44.70
2022-12-02T10:54:43.264Z,41.80
2022-12-02T10:55:37.776Z,40.70
2022-12-02T10:56:36.826Z,43.40
2022-12-02T10:57:36.724Z,38.90
2022-12-02T10:58:36.972Z,41.60
2022-12-02T10:59:36.733Z,40.00
2022-12-02T11:00:42.431Z,39.90
2022-12-02T11:01:37.763Z,42.50
2022-12-02T11:02:36.785Z,42.40
2022-12-02T11:03:36.664Z,43.20
2022-12-02T11:04:36.703Z,39.60
2022-12-02T11:05:36.643Z,38.70
2022-12-02T11:06:36.636Z,37.40
2022-12-02T11:07:36.658Z,40.20
2022-12-02T11:08:36.636Z,35.60
2022-12-02T11:09:41.078Z,33.20
2022-12-02T11:10:36.615Z,38.70
2022-12-02T11:11:36.737Z,37.90
2022-12-02T11:12:36.587Z,40.30
2022-12-02T11:13:36.558Z,36.10
2022-12-02T11:14:36.555Z,35.60
2022-12-02T11:15:36.577Z,36.20
2022-12-02T11:16:36.574Z,34.80
2022-12-02T11:17:36.559Z,36.40
2022-12-02T11:18:36.495Z,34.50
2022-12-02T11:19:36.527Z,33.60
2022-12-02T11:20:36.519Z,33.60
2022-12-02T11:21:36.499Z,35.30
2022-12-02T11:22:36.459Z,34.40
2022-12-02T11:23:36.464Z,33.00
2022-12-02T11:24:36.424Z,34.10
2022-12-02T11:25:36.426Z,34.60
2022-12-02T11:26:36.456Z,33.90
2022-12-02T11:27:36.403Z,35.10
2022-12-02T11:28:36.416Z,38.90
2022-12-02T11:29:36.367Z,33.60
2022-12-02T11:30:36.357Z,32.60
2022-12-02T11:31:36.436Z,31.00
2022-12-02T11:32:36.340Z,31.20
2022-12-02T11:33:36.317Z,31.90
2022-12-02T11:35:00.825Z,29.80
2022-12-02T11:35:37.305Z,25.70
2022-12-02T11:36:36.324Z,24.00
2022-12-02T11:37:36.300Z,26.10
2022-12-02T11:38:36.289Z,29.70
2022-12-02T11:39:36.278Z,26.20
2022-12-02T11:40:36.500Z,26.40
2022-12-02T11:41:36.273Z,26.00
2022-12-02T11:42:36.310Z,27.60
2022-12-02T11:43:36.199Z,26.00
2022-12-02T11:44:36.483Z,28.50
2022-12-02T11:45:36.277Z,27.00
2022-12-02T11:46:36.185Z,28.10
2022-12-02T11:47:36.174Z,30.50
2022-12-02T11:48:36.163Z,31.60
2022-12-02T11:49:37.295Z,31.90
2022-12-02T11:50:37.064Z,30.40
2022-12-02T11:51:36.142Z,28.10
2022-12-02T11:52:36.222Z,31.50
2022-12-02T11:53:36.080Z,31.90
2022-12-02T11:54:36.085Z,33.70
2022-12-02T11:55:36.492Z,35.50
2022-12-02T11:56:36.151Z,35.60
2022-12-02T11:57:36.053Z,35.70
2022-12-02T11:58:36.236Z,35.10
2022-12-02T11:59:36.041Z,34.20
2022-12-02T12:00:38.307Z,37.60
2022-12-02T12:01:36.016Z,39.40
2022-12-02T12:02:36.154Z,40.10
2022-12-02T12:03:36.051Z,40.90
2022-12-02T12:04:36.049Z,42.80
2022-12-02T12:05:36.272Z,43.80
2022-12-02T12:06:36.391Z,42.20
2022-12-02T12:07:35.999Z,46.50
2022-12-02T12:08:36.051Z,47.90
2022-12-02T12:09:36.263Z,45.70
2022-12-02T12:10:36.174Z,45.30
2022-12-02T12:11:35.918Z,55.50
2022-12-02T12:12:35.875Z,53.20
2022-12-02T12:13:37.283Z,51.40
2022-12-02T12:14:35.876Z,50.00
2022-12-02T12:15:35.868Z,55.40
2022-12-02T12:16:35.876Z,57.80
2022-12-02T12:17:35.838Z,56.70
2022-12-02T12:18:35.933Z,56.80
2022-12-02T12:19:35.838Z,58.00
2022-12-02T12:20:35.824Z,56.40
2022-12-02T12:21:36.132Z,56.70
2022-12-02T12:22:35.800Z,56.80
2022-12-02T12:23:35.765Z,60.90
2022-12-02T12:24:35.766Z,61.40
2022-12-02T12:25:36.410Z,63.40
2022-12-02T12:26:35.887Z,60.80
2022-12-02T12:27:36.700Z,61.50
2022-12-02T12:28:36.091Z,61.50
2022-12-02T12:29:35.691Z,57.60
2022-12-02T12:30:35.803Z,61.30
2022-12-02T12:31:38.686Z,69.00
2022-12-02T12:32:35.788Z,69.40
2022-12-02T12:33:35.951Z,64.70
2022-12-02T12:34:35.627Z,62.00
2022-12-02T12:35:35.615Z,67.30
2022-12-02T12:36:35.629Z,62.10
2022-12-02T12:37:35.881Z,63.40
2022-12-02T12:38:35.754Z,60.30
2022-12-02T12:39:35.890Z,68.40
2022-12-02T12:40:35.565Z,69.40
2022-12-02T12:42:35.589Z,69.30
2022-12-02T12:43:35.518Z,65.00
2022-12-02T12:44:35.523Z,68.60
2022-12-02T12:45:35.563Z,74.40
2022-12-02T12:46:35.631Z,67.10
2022-12-02T12:47:35.497Z,66.20
2022-12-02T12:48:35.460Z,72.10
2022-12-02T12:49:35.516Z,69.30
2022-12-02T12:50:35.444Z,70.60
2022-12-02T12:51:35.421Z,77.40
2022-12-02T12:52:35.461Z,68.50
2022-12-02T12:53:35.426Z,71.10
2022-12-02T12:54:35.404Z,73.80
2022-12-02T12:55:35.414Z,74.80
2022-12-02T12:56:35.362Z,71.60
2022-12-02T12:57:35.382Z,75.60
2022-12-02T12:58:35.390Z,79.20
2022-12-02T12:59:35.353Z,75.30
2022-12-02T13:00:35.337Z,70.20
2022-12-02T13:01:35.363Z,73.40
2022-12-02T13:02:35.387Z,74.60
2022-12-02T13:03:35.312Z,74.40
2022-12-02T13:04:35.316Z,78.20
2022-12-02T13:05:35.299Z,72.70
2022-12-02T13:06:41.691Z,72.40
2022-12-02T13:07:36.352Z,74.30
2022-12-02T13:08:35.249Z,81.90
2022-12-02T13:09:35.354Z,75.30
2022-12-02T13:10:35.217Z,80.50
2022-12-02T13:11:35.223Z,75.10
2022-12-02T13:12:35.218Z,75.70
2022-12-02T13:13:35.164Z,74.30
2022-12-02T13:14:35.178Z,74.20
2022-12-02T13:15:35.188Z,75.80
2022-12-02T13:16:35.303Z,78.80
2022-12-02T13:17:35.156Z,78.20
2022-12-02T13:18:35.118Z,78.80
2022-12-02T13:19:35.105Z,82.00
2022-12-02T13:20:35.086Z,71.60
2022-12-02T13:21:35.115Z,69.80
2022-12-02T13:22:35.085Z,74.70
2022-12-02T13:23:35.046Z,79.20
2022-12-02T13:24:39.503Z,78.20
2022-12-02T13:25:36.135Z,73.50
2022-12-02T13:26:45.352Z,76.80